Paducah, TX (79248)

2:38 AM CST on February 07, 2016 (GMT -0600)
WT_Meso | | Change Station
CLOSE
Current Station
Personal Weather Station
Location: Paducah, TX
Elevation: 2021 ft
Nearby Weather Stations

Elev 2021 ft 33.89 °N, 100.40 °W | Updated 23 minutes ago

Partly Cloudy
Partly Cloudy
36 °F
Feels Like 27 °F
N
15
Wind Variable Wind from SSW
Gusts 17.0 mph

Today
High -- | Low -- °F
--% Chance of Precip.
Yesterday
High -- | Low -- °F
Precip. -- in
Pressure 30.16 in
Visibility 10.0 miles
Clouds Clear
Windchill 27 °F
Dew Point 19 °F
Humidity 51%
Rainfall in
Snow Depth Not available.
7:33 AM 6:17 PM
Waning Crescent, 2% visible
METAR KCDS 070753Z AUTO 19012KT 10SM CLR 03/M08 A3016 RMK AO2 SLP212 T00331078
Pressure 30.16 in
Visibility 10.0 miles
Clouds Clear
Windchill 27 °F
Dew Point 19 °F
Humidity 51%
Rainfall in
Snow Depth Not available.
7:33 AM 6:17 PM
Waning Crescent, 2% visible
METAR KCDS 070753Z AUTO 19012KT 10SM CLR 03/M08 A3016 RMK AO2 SLP212 T00331078

10-Day Weather Forecast

Almanac

Astronomy

Feb. 07, 2016 Rise Set
Actual Time
Civil Twilight
Nautical Twilight
Astronomical Twilight
Moon
Length of Visible Light
Length of Day
Tomorrow will be .
, % of the Moon is Illuminated

Today's Extremes

State Highs State Lows

Community

WunderPhotos

Upload Photos

1,891,171 photos uploaded!

WunderBlog® & News

Nearby

Air Quality

  Air Quality AQ Index Pollutant
Not available.

Snow Depth

Station Depth Elevation

Earthquake Activity

City Distance Mag. Time & Date
Minimum magnitude displayed is 2.5.

Coastal Water Temperatures

Place Temperature

Stations

Nearby Weather Stations

Station Location Temp. Windchill Dew Point Humidity Wind Precip. Elev Updated Type
                   

Watches & Warnings

There are currently no watches in effect.